sensor_id;sensor_type;location;lat;lon;timestamp;P1;durP1;ratioP1;P2;durP2;ratioP2
23634;SDS011;11994;51.038;16.974;2022-10-31T00:01:17;22.05;;;14.28;;
23634;SDS011;11994;51.038;16.974;2022-10-31T00:03:50;23.98;;;15.15;;
23634;SDS011;11994;51.038;16.974;2022-10-31T00:06:16;25.75;;;16.17;;
23634;SDS011;11994;51.038;16.974;2022-10-31T00:08:44;24.98;;;16.15;;
23634;SDS011;11994;51.038;16.974;2022-10-31T00:11:19;25.37;;;15.08;;
23634;SDS011;11994;51.038;16.974;2022-10-31T00:13:46;21.93;;;14.35;;
23634;SDS011;11994;51.038;16.974;2022-10-31T00:16:16;25.70;;;14.75;;
23634;SDS011;11994;51.038;16.974;2022-10-31T00:18:49;23.83;;;15.18;;
23634;SDS011;11994;51.038;16.974;2022-10-31T00:21:17;24.57;;;15.72;;
23634;SDS011;11994;51.038;16.974;2022-10-31T00:23:44;25.70;;;15.65;;
23634;SDS011;11994;51.038;16.974;2022-10-31T00:26:10;29.32;;;15.88;;
23634;SDS011;11994;51.038;16.974;2022-10-31T00:28:36;25.35;;;14.68;;
23634;SDS011;11994;51.038;16.974;2022-10-31T00:31:04;25.55;;;14.25;;
23634;SDS011;11994;51.038;16.974;2022-10-31T00:33:35;23.35;;;13.75;;
23634;SDS011;11994;51.038;16.974;2022-10-31T00:36:04;25.88;;;14.35;;
23634;SDS011;11994;51.038;16.974;2022-10-31T00:38:32;24.67;;;14.50;;
23634;SDS011;11994;51.038;16.974;2022-10-31T00:40:58;22.05;;;14.28;;
23634;SDS011;11994;51.038;16.974;2022-10-31T00:43:24;25.70;;;14.90;;
23634;SDS011;11994;51.038;16.974;2022-10-31T00:45:50;24.63;;;14.78;;
23634;SDS011;11994;51.038;16.974;2022-10-31T00:48:17;24.40;;;13.95;;
23634;SDS011;11994;51.038;16.974;2022-10-31T00:50:43;22.00;;;13.08;;
23634;SDS011;11994;51.038;16.974;2022-10-31T00:53:09;21.55;;;13.75;;
23634;SDS011;11994;51.038;16.974;2022-10-31T00:55:35;21.37;;;13.38;;
23634;SDS011;11994;51.038;16.974;2022-10-31T00:58:01;20.92;;;13.30;;
23634;SDS011;11994;51.038;16.974;2022-10-31T01:00:27;21.73;;;12.95;;
23634;SDS011;11994;51.038;16.974;2022-10-31T01:02:53;20.80;;;13.50;;
23634;SDS011;11994;51.038;16.974;2022-10-31T01:05:20;22.20;;;13.53;;
23634;SDS011;11994;51.038;16.974;2022-10-31T01:07:46;22.32;;;12.55;;
23634;SDS011;11994;51.038;16.974;2022-10-31T01:10:12;23.67;;;12.40;;
23634;SDS011;11994;51.038;16.974;2022-10-31T01:12:39;24.70;;;13.90;;
23634;SDS011;11994;51.038;16.974;2022-10-31T01:15:09;20.10;;;12.45;;
23634;SDS011;11994;51.038;16.974;2022-10-31T01:17:38;25.65;;;13.25;;
23634;SDS011;11994;51.038;16.974;2022-10-31T01:20:05;28.40;;;13.38;;
23634;SDS011;11994;51.038;16.974;2022-10-31T01:22:34;20.02;;;13.78;;
23634;SDS011;11994;51.038;16.974;2022-10-31T01:25:00;20.90;;;13.08;;
23634;SDS011;11994;51.038;16.974;2022-10-31T01:27:26;21.52;;;13.13;;
23634;SDS011;11994;51.038;16.974;2022-10-31T01:29:52;29.57;;;13.98;;
23634;SDS011;11994;51.038;16.974;2022-10-31T01:32:19;21.10;;;13.72;;
23634;SDS011;11994;51.038;16.974;2022-10-31T01:34:45;21.23;;;12.88;;
23634;SDS011;11994;51.038;16.974;2022-10-31T01:37:11;23.87;;;14.33;;
23634;SDS011;11994;51.038;16.974;2022-10-31T01:39:37;24.00;;;14.78;;
23634;SDS011;11994;51.038;16.974;2022-10-31T01:42:03;26.20;;;13.22;;
23634;SDS011;11994;51.038;16.974;2022-10-31T01:47:08;22.52;;;13.80;;
23634;SDS011;11994;51.038;16.974;2022-10-31T01:49:55;24.32;;;13.78;;
23634;SDS011;11994;51.038;16.974;2022-10-31T01:52:27;24.47;;;14.78;;
23634;SDS011;11994;51.038;16.974;2022-10-31T01:55:32;25.97;;;14.55;;
23634;SDS011;11994;51.038;16.974;2022-10-31T01:57:41;26.77;;;14.87;;
23634;SDS011;11994;51.038;16.974;2022-10-31T02:00:11;23.50;;;14.50;;
23634;SDS011;11994;51.038;16.974;2022-10-31T02:02:38;23.38;;;13.32;;
23634;SDS011;11994;51.038;16.974;2022-10-31T02:05:06;23.98;;;13.50;;
23634;SDS011;11994;51.038;16.974;2022-10-31T02:10:30;19.50;;;13.58;;
23634;SDS011;11994;51.038;16.974;2022-10-31T02:12:59;27.80;;;14.10;;
23634;SDS011;11994;51.038;16.974;2022-10-31T02:15:30;27.27;;;14.58;;
23634;SDS011;11994;51.038;16.974;2022-10-31T02:17:57;24.23;;;12.90;;
23634;SDS011;11994;51.038;16.974;2022-10-31T02:20:25;21.68;;;12.30;;
23634;SDS011;11994;51.038;16.974;2022-10-31T02:32:02;24.90;;;14.47;;
23634;SDS011;11994;51.038;16.974;2022-10-31T02:37:28;24.47;;;12.50;;
23634;SDS011;11994;51.038;16.974;2022-10-31T02:40:22;24.02;;;12.75;;
23634;SDS011;11994;51.038;16.974;2022-10-31T02:45:35;21.87;;;13.90;;
23634;SDS011;11994;51.038;16.974;2022-10-31T02:48:24;21.80;;;14.20;;
23634;SDS011;11994;51.038;16.974;2022-10-31T02:50:54;20.77;;;14.03;;
23634;SDS011;11994;51.038;16.974;2022-10-31T02:53:25;21.87;;;13.95;;
23634;SDS011;11994;51.038;16.974;2022-10-31T02:58:24;22.22;;;12.55;;
23634;SDS011;11994;51.038;16.974;2022-10-31T03:04:08;20.40;;;12.90;;
23634;SDS011;11994;51.038;16.974;2022-10-31T03:06:59;24.05;;;13.53;;
23634;SDS011;11994;51.038;16.974;2022-10-31T03:10:03;21.07;;;13.68;;
23634;SDS011;11994;51.038;16.974;2022-10-31T03:15:36;17.50;;;11.80;;
23634;SDS011;11994;51.038;16.974;2022-10-31T03:21:11;22.58;;;13.15;;
23634;SDS011;11994;51.038;16.974;2022-10-31T03:23:39;22.52;;;13.50;;
23634;SDS011;11994;51.038;16.974;2022-10-31T03:26:09;22.70;;;13.85;;
23634;SDS011;11994;51.038;16.974;2022-10-31T03:28:43;23.22;;;13.45;;
23634;SDS011;11994;51.038;16.974;2022-10-31T03:31:23;24.82;;;13.88;;
23634;SDS011;11994;51.038;16.974;2022-10-31T03:33:53;21.10;;;12.90;;
23634;SDS011;11994;51.038;16.974;2022-10-31T03:36:22;22.05;;;13.30;;
23634;SDS011;11994;51.038;16.974;2022-10-31T03:38:48;22.07;;;13.15;;
23634;SDS011;11994;51.038;16.974;2022-10-31T03:41:19;26.30;;;14.23;;
23634;SDS011;11994;51.038;16.974;2022-10-31T03:43:55;23.55;;;14.30;;
23634;SDS011;11994;51.038;16.974;2022-10-31T03:46:30;26.52;;;15.78;;
23634;SDS011;11994;51.038;16.974;2022-10-31T03:48:56;28.00;;;14.40;;
23634;SDS011;11994;51.038;16.974;2022-10-31T03:51:30;23.75;;;13.95;;
23634;SDS011;11994;51.038;16.974;2022-10-31T03:54:14;24.25;;;13.00;;
23634;SDS011;11994;51.038;16.974;2022-10-31T03:56:52;23.02;;;13.60;;
23634;SDS011;11994;51.038;16.974;2022-10-31T03:59:29;21.82;;;12.88;;
23634;SDS011;11994;51.038;16.974;2022-10-31T04:01:59;25.05;;;14.95;;
23634;SDS011;11994;51.038;16.974;2022-10-31T04:04:29;22.67;;;13.85;;
23634;SDS011;11994;51.038;16.974;2022-10-31T04:06:56;23.02;;;14.00;;
23634;SDS011;11994;51.038;16.974;2022-10-31T04:09:25;22.65;;;13.55;;
23634;SDS011;11994;51.038;16.974;2022-10-31T04:11:56;19.07;;;12.35;;
23634;SDS011;11994;51.038;16.974;2022-10-31T04:14:24;21.57;;;12.93;;
23634;SDS011;11994;51.038;16.974;2022-10-31T04:16:52;28.23;;;13.30;;
23634;SDS011;11994;51.038;16.974;2022-10-31T04:19:19;22.48;;;14.00;;
23634;SDS011;11994;51.038;16.974;2022-10-31T04:21:45;25.25;;;15.18;;
23634;SDS011;11994;51.038;16.974;2022-10-31T04:24:12;27.80;;;16.20;;
23634;SDS011;11994;51.038;16.974;2022-10-31T04:26:38;19.55;;;12.80;;
23634;SDS011;11994;51.038;16.974;2022-10-31T04:29:04;21.95;;;13.20;;
23634;SDS011;11994;51.038;16.974;2022-10-31T04:31:30;21.27;;;12.68;;
23634;SDS011;11994;51.038;16.974;2022-10-31T04:33:56;21.65;;;12.88;;
23634;SDS011;11994;51.038;16.974;2022-10-31T04:36:22;24.02;;;13.43;;
23634;SDS011;11994;51.038;16.974;2022-10-31T04:38:48;24.82;;;13.72;;
23634;SDS011;11994;51.038;16.974;2022-10-31T04:41:14;19.87;;;12.60;;
23634;SDS011;11994;51.038;16.974;2022-10-31T04:43:40;24.27;;;13.15;;
23634;SDS011;11994;51.038;16.974;2022-10-31T04:46:06;20.88;;;12.60;;
23634;SDS011;11994;51.038;16.974;2022-10-31T04:48:32;19.17;;;11.15;;
23634;SDS011;11994;51.038;16.974;2022-10-31T04:50:59;21.77;;;11.00;;
23634;SDS011;11994;51.038;16.974;2022-10-31T04:53:27;21.05;;;12.18;;
23634;SDS011;11994;51.038;16.974;2022-10-31T04:55:54;19.57;;;11.83;;
23634;SDS011;11994;51.038;16.974;2022-10-31T04:58:20;18.90;;;12.13;;
23634;SDS011;11994;51.038;16.974;2022-10-31T05:00:46;27.98;;;13.43;;
23634;SDS011;11994;51.038;16.974;2022-10-31T05:03:12;21.82;;;11.33;;
23634;SDS011;11994;51.038;16.974;2022-10-31T05:05:38;18.50;;;11.12;;
23634;SDS011;11994;51.038;16.974;2022-10-31T05:08:05;18.57;;;10.75;;
23634;SDS011;11994;51.038;16.974;2022-10-31T05:10:31;23.25;;;10.32;;
23634;SDS011;11994;51.038;16.974;2022-10-31T05:12:59;20.17;;;10.32;;
23634;SDS011;11994;51.038;16.974;2022-10-31T05:15:27;23.55;;;10.48;;
23634;SDS011;11994;51.038;16.974;2022-10-31T05:17:54;22.60;;;11.45;;
23634;SDS011;11994;51.038;16.974;2022-10-31T05:20:21;20.95;;;11.25;;
23634;SDS011;11994;51.038;16.974;2022-10-31T05:22:51;21.85;;;10.40;;
23634;SDS011;11994;51.038;16.974;2022-10-31T05:25:20;16.15;;;10.25;;
23634;SDS011;11994;51.038;16.974;2022-10-31T05:27:50;16.50;;;10.58;;
23634;SDS011;11994;51.038;16.974;2022-10-31T05:30:18;21.30;;;11.55;;
23634;SDS011;11994;51.038;16.974;2022-10-31T05:32:50;23.02;;;10.30;;
23634;SDS011;11994;51.038;16.974;2022-10-31T05:35:18;18.85;;;10.98;;
23634;SDS011;11994;51.038;16.974;2022-10-31T05:37:47;22.73;;;11.48;;
23634;SDS011;11994;51.038;16.974;2022-10-31T05:40:13;18.10;;;10.68;;
23634;SDS011;11994;51.038;16.974;2022-10-31T05:42:42;18.55;;;10.35;;
23634;SDS011;11994;51.038;16.974;2022-10-31T05:45:10;22.80;;;10.65;;
23634;SDS011;11994;51.038;16.974;2022-10-31T05:47:41;20.75;;;10.25;;
23634;SDS011;11994;51.038;16.974;2022-10-31T05:50:08;26.37;;;10.95;;
23634;SDS011;11994;51.038;16.974;2022-10-31T05:52:35;18.70;;;10.60;;
23634;SDS011;11994;51.038;16.974;2022-10-31T05:55:01;18.98;;;10.30;;
23634;SDS011;11994;51.038;16.974;2022-10-31T05:57:28;19.82;;;9.75;;
23634;SDS011;11994;51.038;16.974;2022-10-31T05:59:54;19.70;;;10.08;;
23634;SDS011;11994;51.038;16.974;2022-10-31T06:02:21;17.90;;;10.53;;
23634;SDS011;11994;51.038;16.974;2022-10-31T06:04:47;22.67;;;10.55;;
23634;SDS011;11994;51.038;16.974;2022-10-31T06:07:14;20.32;;;10.63;;
23634;SDS011;11994;51.038;16.974;2022-10-31T06:09:40;23.77;;;11.75;;
23634;SDS011;11994;51.038;16.974;2022-10-31T06:12:06;18.70;;;11.00;;
23634;SDS011;11994;51.038;16.974;2022-10-31T06:14:32;21.97;;;14.33;;
23634;SDS011;11994;51.038;16.974;2022-10-31T06:16:58;31.65;;;24.10;;
23634;SDS011;11994;51.038;16.974;2022-10-31T06:19:24;23.25;;;12.20;;
23634;SDS011;11994;51.038;16.974;2022-10-31T06:21:50;24.82;;;11.40;;
23634;SDS011;11994;51.038;16.974;2022-10-31T06:24:16;27.40;;;12.20;;
23634;SDS011;11994;51.038;16.974;2022-10-31T06:26:42;18.92;;;13.28;;
23634;SDS011;11994;51.038;16.974;2022-10-31T06:29:09;27.10;;;17.62;;
23634;SDS011;11994;51.038;16.974;2022-10-31T06:31:35;28.25;;;15.58;;
23634;SDS011;11994;51.038;16.974;2022-10-31T06:34:01;31.55;;;13.90;;
23634;SDS011;11994;51.038;16.974;2022-10-31T06:36:27;24.87;;;12.63;;
23634;SDS011;11994;51.038;16.974;2022-10-31T06:38:53;20.88;;;12.47;;
23634;SDS011;11994;51.038;16.974;2022-10-31T06:41:19;19.23;;;11.43;;
23634;SDS011;11994;51.038;16.974;2022-10-31T06:43:48;20.45;;;10.72;;
23634;SDS011;11994;51.038;16.974;2022-10-31T06:46:14;20.15;;;10.38;;
23634;SDS011;11994;51.038;16.974;2022-10-31T06:48:40;20.30;;;10.10;;
23634;SDS011;11994;51.038;16.974;2022-10-31T06:51:07;17.45;;;10.08;;
23634;SDS011;11994;51.038;16.974;2022-10-31T06:53:33;17.73;;;10.20;;
23634;SDS011;11994;51.038;16.974;2022-10-31T06:55:59;18.95;;;10.40;;
23634;SDS011;11994;51.038;16.974;2022-10-31T06:58:25;19.77;;;9.85;;
23634;SDS011;11994;51.038;16.974;2022-10-31T07:00:51;23.20;;;10.88;;
23634;SDS011;11994;51.038;16.974;2022-10-31T07:03:17;17.65;;;9.75;;
23634;SDS011;11994;51.038;16.974;2022-10-31T07:05:45;16.02;;;9.08;;
23634;SDS011;11994;51.038;16.974;2022-10-31T07:08:12;20.82;;;9.80;;
23634;SDS011;11994;51.038;16.974;2022-10-31T07:10:40;16.52;;;8.88;;
23634;SDS011;11994;51.038;16.974;2022-10-31T07:13:11;17.92;;;8.98;;
23634;SDS011;11994;51.038;16.974;2022-10-31T07:15:40;18.10;;;8.85;;
23634;SDS011;11994;51.038;16.974;2022-10-31T07:18:09;16.97;;;7.85;;
23634;SDS011;11994;51.038;16.974;2022-10-31T07:20:37;20.00;;;8.10;;
23634;SDS011;11994;51.038;16.974;2022-10-31T07:23:03;19.60;;;8.00;;
23634;SDS011;11994;51.038;16.974;2022-10-31T07:25:30;15.58;;;8.08;;
23634;SDS011;11994;51.038;16.974;2022-10-31T07:27:56;20.62;;;7.58;;
23634;SDS011;11994;51.038;16.974;2022-10-31T07:30:22;14.95;;;7.78;;
23634;SDS011;11994;51.038;16.974;2022-10-31T07:32:48;18.07;;;7.92;;
23634;SDS011;11994;51.038;16.974;2022-10-31T07:35:20;18.23;;;7.60;;
23634;SDS011;11994;51.038;16.974;2022-10-31T07:37:49;16.70;;;7.28;;
23634;SDS011;11994;51.038;16.974;2022-10-31T07:40:16;16.50;;;7.08;;
23634;SDS011;11994;51.038;16.974;2022-10-31T07:42:44;17.30;;;7.83;;
23634;SDS011;11994;51.038;16.974;2022-10-31T07:45:15;15.63;;;7.97;;
23634;SDS011;11994;51.038;16.974;2022-10-31T07:47:45;18.20;;;7.60;;
23634;SDS011;11994;51.038;16.974;2022-10-31T07:50:17;18.57;;;7.80;;
23634;SDS011;11994;51.038;16.974;2022-10-31T07:52:46;15.25;;;7.35;;
23634;SDS011;11994;51.038;16.974;2022-10-31T07:55:13;19.50;;;7.53;;
23634;SDS011;11994;51.038;16.974;2022-10-31T07:57:40;18.80;;;7.83;;
23634;SDS011;11994;51.038;16.974;2022-10-31T08:00:07;16.80;;;7.62;;
23634;SDS011;11994;51.038;16.974;2022-10-31T08:02:35;18.07;;;8.53;;
23634;SDS011;11994;51.038;16.974;2022-10-31T08:05:01;22.62;;;8.18;;
23634;SDS011;11994;51.038;16.974;2022-10-31T08:07:28;21.97;;;9.33;;
23634;SDS011;11994;51.038;16.974;2022-10-31T08:09:55;18.67;;;7.80;;
23634;SDS011;11994;51.038;16.974;2022-10-31T08:12:21;19.82;;;8.03;;
23634;SDS011;11994;51.038;16.974;2022-10-31T08:14:47;18.37;;;8.03;;
23634;SDS011;11994;51.038;16.974;2022-10-31T08:17:15;20.72;;;8.58;;
23634;SDS011;11994;51.038;16.974;2022-10-31T08:19:41;15.50;;;8.28;;
23634;SDS011;11994;51.038;16.974;2022-10-31T08:22:07;16.93;;;8.05;;
23634;SDS011;11994;51.038;16.974;2022-10-31T08:24:33;17.65;;;8.35;;
23634;SDS011;11994;51.038;16.974;2022-10-31T08:26:59;18.55;;;7.45;;
23634;SDS011;11994;51.038;16.974;2022-10-31T08:29:25;17.20;;;7.30;;
23634;SDS011;11994;51.038;16.974;2022-10-31T08:31:51;16.40;;;6.90;;
23634;SDS011;11994;51.038;16.974;2022-10-31T08:34:17;18.57;;;7.08;;
23634;SDS011;11994;51.038;16.974;2022-10-31T08:36:43;14.87;;;6.75;;
23634;SDS011;11994;51.038;16.974;2022-10-31T08:39:11;17.40;;;6.60;;
23634;SDS011;11994;51.038;16.974;2022-10-31T08:41:37;12.07;;;5.58;;
23634;SDS011;11994;51.038;16.974;2022-10-31T08:44:03;17.52;;;5.53;;
23634;SDS011;11994;51.038;16.974;2022-10-31T08:46:30;13.20;;;5.05;;
23634;SDS011;11994;51.038;16.974;2022-10-31T08:48:57;13.30;;;5.12;;
23634;SDS011;11994;51.038;16.974;2022-10-31T08:51:23;10.00;;;4.62;;
23634;SDS011;11994;51.038;16.974;2022-10-31T08:53:49;15.32;;;4.92;;
23634;SDS011;11994;51.038;16.974;2022-10-31T08:56:15;11.30;;;5.35;;
23634;SDS011;11994;51.038;16.974;2022-10-31T08:58:41;12.70;;;5.42;;
23634;SDS011;11994;51.038;16.974;2022-10-31T09:01:07;13.98;;;5.25;;
23634;SDS011;11994;51.038;16.974;2022-10-31T09:03:33;11.05;;;5.17;;
23634;SDS011;11994;51.038;16.974;2022-10-31T09:06:00;12.90;;;5.33;;
23634;SDS011;11994;51.038;16.974;2022-10-31T09:08:31;15.63;;;5.10;;
23634;SDS011;11994;51.038;16.974;2022-10-31T09:10:58;13.00;;;4.40;;
23634;SDS011;11994;51.038;16.974;2022-10-31T09:13:25;15.98;;;4.83;;
23634;SDS011;11994;51.038;16.974;2022-10-31T09:15:51;13.60;;;4.78;;
23634;SDS011;11994;51.038;16.974;2022-10-31T09:18:18;12.40;;;4.80;;
23634;SDS011;11994;51.038;16.974;2022-10-31T09:20:47;14.95;;;4.78;;
23634;SDS011;11994;51.038;16.974;2022-10-31T09:23:15;9.75;;;4.72;;
23634;SDS011;11994;51.038;16.974;2022-10-31T09:25:44;11.78;;;5.33;;
23634;SDS011;11994;51.038;16.974;2022-10-31T09:28:12;11.65;;;5.17;;
23634;SDS011;11994;51.038;16.974;2022-10-31T09:30:42;13.13;;;4.42;;
23634;SDS011;11994;51.038;16.974;2022-10-31T09:33:14;13.15;;;4.95;;
23634;SDS011;11994;51.038;16.974;2022-10-31T09:35:41;13.40;;;5.10;;
23634;SDS011;11994;51.038;16.974;2022-10-31T09:38:11;10.80;;;4.62;;
23634;SDS011;11994;51.038;16.974;2022-10-31T09:46:56;10.35;;;4.55;;
23634;SDS011;11994;51.038;16.974;2022-10-31T09:52:39;11.30;;;4.12;;
23634;SDS011;11994;51.038;16.974;2022-10-31T09:55:23;14.33;;;5.37;;
23634;SDS011;11994;51.038;16.974;2022-10-31T09:57:59;8.53;;;4.75;;
23634;SDS011;11994;51.038;16.974;2022-10-31T10:00:26;13.53;;;4.58;;
23634;SDS011;11994;51.038;16.974;2022-10-31T10:02:54;10.75;;;4.80;;
23634;SDS011;11994;51.038;16.974;2022-10-31T10:05:32;15.65;;;4.37;;
23634;SDS011;11994;51.038;16.974;2022-10-31T10:10:52;11.95;;;4.85;;
23634;SDS011;11994;51.038;16.974;2022-10-31T10:13:44;12.95;;;4.62;;
23634;SDS011;11994;51.038;16.974;2022-10-31T10:31:09;12.30;;;4.62;;
23634;SDS011;11994;51.038;16.974;2022-10-31T10:33:36;14.75;;;5.28;;
23634;SDS011;11994;51.038;16.974;2022-10-31T10:36:25;10.30;;;5.17;;
23634;SDS011;11994;51.038;16.974;2022-10-31T10:39:01;11.78;;;5.17;;
23634;SDS011;11994;51.038;16.974;2022-10-31T10:41:31;16.60;;;5.10;;
23634;SDS011;11994;51.038;16.974;2022-10-31T10:43:58;17.52;;;4.85;;
23634;SDS011;11994;51.038;16.974;2022-10-31T10:46:43;12.07;;;4.47;;
23634;SDS011;11994;51.038;16.974;2022-10-31T10:49:44;11.78;;;5.10;;
23634;SDS011;11994;51.038;16.974;2022-10-31T10:55:06;15.43;;;4.90;;
23634;SDS011;11994;51.038;16.974;2022-10-31T11:00:27;20.17;;;5.15;;
23634;SDS011;11994;51.038;16.974;2022-10-31T11:03:03;11.93;;;5.95;;
23634;SDS011;11994;51.038;16.974;2022-10-31T11:05:33;14.98;;;5.45;;
23634;SDS011;11994;51.038;16.974;2022-10-31T11:08:10;10.90;;;4.80;;
23634;SDS011;11994;51.038;16.974;2022-10-31T11:11:07;13.18;;;5.15;;
23634;SDS011;11994;51.038;16.974;2022-10-31T11:13:54;15.95;;;5.08;;
23634;SDS011;11994;51.038;16.974;2022-10-31T11:21:44;13.43;;;5.12;;
23634;SDS011;11994;51.038;16.974;2022-10-31T11:27:02;16.00;;;5.30;;
23634;SDS011;11994;51.038;16.974;2022-10-31T11:29:30;15.95;;;4.47;;
23634;SDS011;11994;51.038;16.974;2022-10-31T11:31:56;12.20;;;4.20;;
23634;SDS011;11994;51.038;16.974;2022-10-31T11:34:32;17.25;;;4.75;;
23634;SDS011;11994;51.038;16.974;2022-10-31T11:37:03;19.77;;;4.83;;
23634;SDS011;11994;51.038;16.974;2022-10-31T11:39:44;13.60;;;4.92;;
23634;SDS011;11994;51.038;16.974;2022-10-31T11:42:09;11.90;;;5.13;;
23634;SDS011;11994;51.038;16.974;2022-10-31T11:44:35;10.38;;;4.40;;
23634;SDS011;11994;51.038;16.974;2022-10-31T11:47:02;16.00;;;4.72;;
23634;SDS011;11994;51.038;16.974;2022-10-31T11:49:40;13.10;;;5.28;;
23634;SDS011;11994;51.038;16.974;2022-10-31T11:54:59;9.20;;;4.50;;
23634;SDS011;11994;51.038;16.974;2022-10-31T11:57:49;12.60;;;3.85;;
23634;SDS011;11994;51.038;16.974;2022-10-31T12:03:03;14.18;;;5.33;;
23634;SDS011;11994;51.038;16.974;2022-10-31T12:05:44;13.50;;;4.65;;
23634;SDS011;11994;51.038;16.974;2022-10-31T12:08:12;18.23;;;5.08;;
23634;SDS011;11994;51.038;16.974;2022-10-31T12:10:43;15.23;;;4.53;;
23634;SDS011;11994;51.038;16.974;2022-10-31T12:30:23;13.58;;;4.90;;
23634;SDS011;11994;51.038;16.974;2022-10-31T12:53:09;13.90;;;5.25;;
23634;SDS011;11994;51.038;16.974;2022-10-31T12:58:32;10.43;;;5.03;;
23634;SDS011;11994;51.038;16.974;2022-10-31T13:06:29;15.53;;;5.22;;
23634;SDS011;11994;51.038;16.974;2022-10-31T13:09:00;17.37;;;5.70;;
23634;SDS011;11994;51.038;16.974;2022-10-31T13:16:51;21.55;;;6.33;;
23634;SDS011;11994;51.038;16.974;2022-10-31T13:19:23;10.08;;;5.25;;
23634;SDS011;11994;51.038;16.974;2022-10-31T13:30:14;14.60;;;6.05;;
23634;SDS011;11994;51.038;16.974;2022-10-31T13:35:33;17.37;;;6.83;;
23634;SDS011;11994;51.038;16.974;2022-10-31T13:41:00;13.38;;;6.15;;
23634;SDS011;11994;51.038;16.974;2022-10-31T13:49:03;12.25;;;5.67;;
23634;SDS011;11994;51.038;16.974;2022-10-31T13:51:32;12.60;;;5.85;;
23634;SDS011;11994;51.038;16.974;2022-10-31T13:54:23;19.95;;;6.72;;
23634;SDS011;11994;51.038;16.974;2022-10-31T13:56:49;18.57;;;6.70;;
23634;SDS011;11994;51.038;16.974;2022-10-31T13:59:18;20.50;;;6.92;;
23634;SDS011;11994;51.038;16.974;2022-10-31T14:01:56;13.50;;;6.12;;
23634;SDS011;11994;51.038;16.974;2022-10-31T14:04:59;15.88;;;5.92;;
23634;SDS011;11994;51.038;16.974;2022-10-31T14:07:06;18.30;;;6.08;;
23634;SDS011;11994;51.038;16.974;2022-10-31T14:12:51;18.82;;;7.15;;
23634;SDS011;11994;51.038;16.974;2022-10-31T14:15:22;16.85;;;6.62;;
23634;SDS011;11994;51.038;16.974;2022-10-31T14:23:24;13.08;;;6.15;;
23634;SDS011;11994;51.038;16.974;2022-10-31T14:31:43;14.30;;;5.30;;
23634;SDS011;11994;51.038;16.974;2022-10-31T14:51:38;15.75;;;7.70;;
23634;SDS011;11994;51.038;16.974;2022-10-31T14:54:11;13.25;;;6.67;;
23634;SDS011;11994;51.038;16.974;2022-10-31T14:56:50;18.70;;;7.40;;
23634;SDS011;11994;51.038;16.974;2022-10-31T14:59:24;18.35;;;7.22;;
23634;SDS011;11994;51.038;16.974;2022-10-31T15:02:08;17.37;;;6.37;;
23634;SDS011;11994;51.038;16.974;2022-10-31T15:04:53;15.10;;;6.42;;
23634;SDS011;11994;51.038;16.974;2022-10-31T15:07:23;10.63;;;5.60;;
23634;SDS011;11994;51.038;16.974;2022-10-31T15:09:55;15.63;;;6.03;;
23634;SDS011;11994;51.038;16.974;2022-10-31T15:12:27;15.08;;;6.42;;
23634;SDS011;11994;51.038;16.974;2022-10-31T15:14:57;19.62;;;7.62;;
23634;SDS011;11994;51.038;16.974;2022-10-31T15:17:41;19.30;;;7.08;;
23634;SDS011;11994;51.038;16.974;2022-10-31T15:20:16;11.45;;;6.30;;
23634;SDS011;11994;51.038;16.974;2022-10-31T15:22:46;11.45;;;6.42;;
23634;SDS011;11994;51.038;16.974;2022-10-31T15:25:20;20.50;;;6.83;;
23634;SDS011;11994;51.038;16.974;2022-10-31T15:27:49;14.15;;;5.95;;
23634;SDS011;11994;51.038;16.974;2022-10-31T15:30:21;20.57;;;7.58;;
23634;SDS011;11994;51.038;16.974;2022-10-31T15:32:50;19.55;;;8.88;;
23634;SDS011;11994;51.038;16.974;2022-10-31T15:35:25;18.37;;;8.00;;
23634;SDS011;11994;51.038;16.974;2022-10-31T15:37:54;17.80;;;7.42;;
23634;SDS011;11994;51.038;16.974;2022-10-31T15:40:22;23.10;;;9.63;;
23634;SDS011;11994;51.038;16.974;2022-10-31T15:42:51;20.85;;;8.98;;
23634;SDS011;11994;51.038;16.974;2022-10-31T15:45:22;22.90;;;9.13;;
23634;SDS011;11994;51.038;16.974;2022-10-31T15:47:55;22.32;;;9.40;;
23634;SDS011;11994;51.038;16.974;2022-10-31T15:53:03;18.45;;;8.95;;
23634;SDS011;11994;51.038;16.974;2022-10-31T15:55:33;19.62;;;8.78;;
23634;SDS011;11994;51.038;16.974;2022-10-31T15:58:03;19.67;;;8.98;;
23634;SDS011;11994;51.038;16.974;2022-10-31T16:00:38;16.95;;;9.18;;
23634;SDS011;11994;51.038;16.974;2022-10-31T16:05:46;15.13;;;7.72;;
23634;SDS011;11994;51.038;16.974;2022-10-31T16:10:59;16.37;;;8.13;;
23634;SDS011;11994;51.038;16.974;2022-10-31T16:13:52;21.27;;;8.58;;
23634;SDS011;11994;51.038;16.974;2022-10-31T16:16:21;19.57;;;9.60;;
23634;SDS011;11994;51.038;16.974;2022-10-31T16:18:49;22.85;;;11.68;;
23634;SDS011;11994;51.038;16.974;2022-10-31T16:21:22;22.20;;;10.55;;
23634;SDS011;11994;51.038;16.974;2022-10-31T16:23:55;20.20;;;10.50;;
23634;SDS011;11994;51.038;16.974;2022-10-31T16:26:27;18.55;;;8.90;;
23634;SDS011;11994;51.038;16.974;2022-10-31T16:28:55;24.72;;;10.72;;
23634;SDS011;11994;51.038;16.974;2022-10-31T16:31:28;29.63;;;12.35;;
23634;SDS011;11994;51.038;16.974;2022-10-31T16:34:15;25.10;;;10.60;;
23634;SDS011;11994;51.038;16.974;2022-10-31T16:36:39;26.80;;;12.93;;
23634;SDS011;11994;51.038;16.974;2022-10-31T16:39:05;29.02;;;13.68;;
23634;SDS011;11994;51.038;16.974;2022-10-31T16:41:40;27.62;;;12.05;;
23634;SDS011;11994;51.038;16.974;2022-10-31T16:44:23;25.62;;;13.83;;
23634;SDS011;11994;51.038;16.974;2022-10-31T16:47:07;35.13;;;19.57;;
23634;SDS011;11994;51.038;16.974;2022-10-31T16:49:41;45.98;;;24.87;;
23634;SDS011;11994;51.038;16.974;2022-10-31T16:52:12;37.40;;;21.27;;
23634;SDS011;11994;51.038;16.974;2022-10-31T16:54:39;38.90;;;19.70;;
23634;SDS011;11994;51.038;16.974;2022-10-31T16:57:05;33.88;;;18.60;;
23634;SDS011;11994;51.038;16.974;2022-10-31T16:59:32;31.30;;;17.80;;
23634;SDS011;11994;51.038;16.974;2022-10-31T17:01:59;33.65;;;17.82;;
23634;SDS011;11994;51.038;16.974;2022-10-31T17:04:27;32.50;;;17.15;;
23634;SDS011;11994;51.038;16.974;2022-10-31T17:06:53;28.15;;;14.85;;
23634;SDS011;11994;51.038;16.974;2022-10-31T17:09:19;26.15;;;13.38;;
23634;SDS011;11994;51.038;16.974;2022-10-31T17:11:46;22.10;;;12.37;;
23634;SDS011;11994;51.038;16.974;2022-10-31T17:14:16;23.65;;;11.30;;
23634;SDS011;11994;51.038;16.974;2022-10-31T17:16:43;20.50;;;10.68;;
23634;SDS011;11994;51.038;16.974;2022-10-31T17:19:09;21.73;;;12.88;;
23634;SDS011;11994;51.038;16.974;2022-10-31T17:21:36;25.70;;;14.90;;
23634;SDS011;11994;51.038;16.974;2022-10-31T17:24:03;24.35;;;14.03;;
23634;SDS011;11994;51.038;16.974;2022-10-31T17:26:29;31.37;;;16.48;;
23634;SDS011;11994;51.038;16.974;2022-10-31T17:28:55;32.20;;;17.25;;
23634;SDS011;11994;51.038;16.974;2022-10-31T17:31:27;28.17;;;16.57;;
23634;SDS011;11994;51.038;16.974;2022-10-31T17:33:57;41.45;;;22.05;;
23634;SDS011;11994;51.038;16.974;2022-10-31T17:36:25;35.33;;;20.35;;
23634;SDS011;11994;51.038;16.974;2022-10-31T17:38:51;34.40;;;18.15;;
23634;SDS011;11994;51.038;16.974;2022-10-31T17:41:17;33.70;;;20.02;;